online event registration and payment

Go-Green Events is an event registration and payment web site. We work with all events to provide well-organized and easy-to-use registration services at a low cost.

 

RJ Rockers Beer BBQ 5K run/walk on June 25, 2016, 7 p.m.

Questions about timing? Contact: Scott@PalmettoTiming.com

http://georesults.racemine.com/PalmettoTiming/events/2016/RJ-Rockers-Brewery-Beer-BBQ-5K-Run/results

OVERALL FINISHERS

(Age-group award winners below)

Finish Bib Name Finish Time Pace Gender Gender Place Age Age Place City State
1 354 JOSH CASHMAN 0:16:04 5:10 M 1 28 O/A GREENVILLE SC
2 360 JON STOEHR 0:18:47 6:03 M 2 31 O/A GREER SC
3 70 DAVID DOWNING 0:20:08 6:29 M 3 41 O/A GREENVILLE SC
4 350 EVAN HANLEY 0:20:37 6:39 M 4 25 1    
5 202 KEITH MOREE 0:20:45 6:41 M 5 36 1 WHITEVILLE NC
6 381 MATTHEW SHEMANSKI 0:20:49 6:42 M 6 24 2    
7 82 CHRISTOPHER FERLAND 0:20:51 6:43 M 7 46 1 MAULDIN SC
8 270 JONATHAN SEDBERRY 0:20:59 6:46 M 8 37 2 SPARTANBURG SC
9 265 RYAN SACKO 0:21:28 6:55 M 9 35 3 COLUMBIA SC
10 247 ANDRES REYES 0:21:40 6:59 M 10 30 4 BOILING SPRINGS SC
11 370 ANNA JENNINGS 0:21:45 7:00 F 1 19 O/A SPARTANBURG  
12 366 DJ JORDON 0:21:49 7:02 M 11 53 1    
13 46 ZACHARY CARVER 0:21:51 7:02 M 12 12 1 ANDERSON SC
14 312 DAVIS SWOFFORD 0:22:00 7:05 M 13 16 1 GAFFNEY SC
15 246 MARK RENNIX 0:22:13 7:10 M 14 23 3 SPARTANBURG SC
16 143 SHANNON HOWELL 0:22:21 7:12 F 2 37 O/A GREENVILLE SC
17 188 TRAVIS MCJUNKIN 0:22:37 7:17 M 15 35 5 SPARTANBURG SC
18 295 KEITH SOULES 0:22:39 7:18 M 16 34 6 CHESNEE SC
19 345 LOGAN YENSER 0:22:41 7:19 M 17 15 2 SIMPSONVILLE SC
20 267 JASON SCHREINER 0:22:46 7:20 M 18 43 2 SIMPSONVILLE SC
21 374 NIKKI RIDGEWAY 0:22:48 7:21 F 3 35 O/A    
22 346 ROGER MYERS 0:23:02 7:25 M 19 42 3    
23 316 CHRISTOPHER TEMPLES 0:23:12 7:29 M 20 31 7 PIEDMONT SC
24 15 NATHAN BIDWELL 0:23:16 7:30 M 21 28 4 LYMAN SC
25 268 MAC SCHWEPPE 0:23:18 7:30 M 22 24 5 GREENVILLE SC
26 251 JACK RICHARDSON 0:23:22 7:32 M 23 30 8 SPARTANBURG SC
27 327 BEN WAGNER 0:23:25 7:33 M 24 24 6 GREENVILLE SC
28 127 ANDREW HEWSON 0:23:36 7:36 M 25 57 2 SPARTANBURG SC
29 241 ANDY RANDALL 0:23:44 7:39 M 26 34 9 PAULINE SC
30 301 ANTHONY STEFANACCI 0:23:48 7:40 M 27 28 7 SPARTANBURG SC
31 16 MEAGAN BLAKESLEY 0:23:54 7:42 F 4 20 1 ANDERSON SC
32 226 EVAN PAULSON 0:24:08 7:47 M 28 29 8 MILLEDGEVILLE GA
33 368 ADAM WARNER 0:24:10 7:47 M 29 28 9    
34 220 NICOLE OWENS 0:24:11 7:48 F 5 23 1 GREENVILLE SC
35 79 JILL ENGE 0:24:13 7:48 F 6 25 2 HONEA PATH SC
36 347 PETER MAYRHOFER 0:24:15 7:49 M 30 26 10    
37 18 DEANNE BLAS 0:24:28 7:53 F 7 52 1 SIMPSONVILLE SC
38 96 KARL GLANG 0:24:30 7:54 M 31 25 11 GREENVILLE SC
39 41 BILL CARRY 0:24:35 7:55 M 32 60 1 SPARTANBURG SC
40 260 DAVID ROWLEY 0:24:35 7:55 M 33 44 4 ANDERSON SC
41 176 BILL LINN 0:24:47 7:59 M 34 50 3 GREENVILLE SC
42 150 JOHN HUNT 0:25:13 8:08 M 35 24 12 GREER SC
43 311 ALBERT SWANSON 0:25:13 8:08 M 36 33 10 SPARTANBURG SC
44 363 RACHEL SMITH 0:25:13 8:08 F 8 23 3    
45 177 JOSH LONON 0:25:19 8:10 M 37 40 5 SPARTANBURG SC
46 163 JULIUS KERSCHINSKE 0:25:22 8:10 M 38 30 11 GREENVILLE SC
47 349 TYNDLE ANTLEY 0:25:25 8:11 M 39 8 1    
48 71 MELISSA DOWNS-HIGH 0:25:45 8:18 F 9 48 1 MYRTLE BEACH SC
49 107 OSWALDO GUERRA 0:25:50 8:20 M 40 50 4 LAKE PLACID FL
50 191 J MEGGS 0:25:52 8:20 M 41 28 13 GREENVILLE SC
51 242 DAN RANDALL 0:26:10 8:26 M 42 45 6 SIMPSONVILLE SC
52 344 TOM WOOD 0:26:10 8:26 M 43 25 14 SPARTANBURG SC
53 88 MATTHEW GALLEGO 0:26:16 8:28 M 44 13 2 TAYLORS SC
54 123 ANDREW HENDERSON 0:26:17 8:28 M 45 25 15 SPARTANBURG SC
55 384 DUSTIN SEAY 0:26:17 8:28 M 46 36 12    
56 266 EVAN SANDERS 0:26:18 8:29 M 47 29 16 HONEA PATH SC
57 221 JAMES PALMER 0:26:22 8:30 M 48 40 7 SIMPSONVILLE SC
58 342 TOM WILSON 0:26:27 8:31 M 49 66 2 GREENVILLE SC
59 108 MATTHEW HAMMETT 0:26:29 8:32 M 50 33 13 MOORE SC
60 324 HARRIS USMANI 0:26:31 8:33 M 51 24 17 SPARTANBURG SC
61 126 ALDO HERNANDEZ 0:26:35 8:34 M 52 28 18 SPARTANBURG SC
62 129 DARRELL HIGH 0:26:47 8:38 M 53 48 8 MYRTLE BEACH SC
63 250 ZAC RICH 0:26:48 8:38 M 54 30 14 ROEBUCK SC
64 378 MARK WALLINGFORD 0:26:48 8:38 M 55 25 19    
65 207 CHRISTIAN NEWTON 0:27:01 8:42 M 56 16 3 CHESNEE SC
66 147 CLAIRE HUMINSKI 0:27:04 8:43 F 10 22 4 BOILING SPRINGS SC
67 245 JASON RANTO 0:27:04 8:43 M 57 29 20 ARCADIA SC
68 383 JIM BALLINEOR 0:27:12 8:46 M 58 63 3    
69 57 ANDY CONNOLLY 0:27:21 8:49 M 59 43 9 SPARTANBURG SC
70 214 LEE ODOM 0:27:23 8:50 M 60 45 10 SIMPSONVILLE SC
71 132 MARNA HILL 0:27:23 8:50 F 11 46 2 SIMPSONVILLE SC
72 309 SYDNEY SULLIVAN 0:27:25 8:50 F 12 23 5 SPARTANBURG SC
73 97 ED GLISS 0:27:28 8:51 M 61 27 21 SIMPSONVILLE SC
74 130 DAWSON HILL 0:27:32 8:52 M 62 40 11 STARTEX SC
75 329 RYAN WALKER 0:27:41 8:55 M 63 33 15 SPARTANBURG SC
76 66 MELISSA DEVORE 0:27:45 8:57 F 13 32 1 GAFFNEY SC
77 27 ASHLEY BROWN 0:27:47 8:57 M 64 42 12 SPARTANBURG SC
78 92 DENNIS GEISER 0:27:48 8:58 M 65 35 16 GREENVILLE SC
79 111 MEG HANCOCK 0:27:54 9:00 F 14 32 2 SPARTANBURG SC
80 229 ALLISON PERRY 0:28:00 9:01 F 15 22 6 SPARTANBURG SC
81 248 RODRIGO REYES 0:28:01 9:02 M 66 24 22 SPARTANBURG SC
82 100 SAMMY GOODE 0:28:04 9:03 M 67 53 5 BOILING SPRINGS SC
83 73 BRIAN EDWARDS 0:28:06 9:03 M 68 32 17 BOILING SPRINGS SC
84 272 WILLIAM SHARP 0:28:17 9:07 M 69 56 6 SIMPSONVILLE SC
85 39 AMANDA CAMPBELL 0:28:19 9:08 F 16 41 3 GAFFNEY SC
86 20 STEVE BLOOMQUIST 0:28:25 9:10 M 70 56 7 SIMPSONVILLE SC
87 62 SARAH COX 0:28:26 9:10 F 17 29 7 ANDERSON SC
88 285 CLARKE SMITH 0:28:26 9:10 M 71 34 18 SIMPSONVILLE SC
89 23 KRIS BOWIE 0:28:30 9:11 M 72 28 23 GREENVILLE SC
90 156 ELLIOT JAMES 0:28:31 9:11 M 73 43 13 GAFFNEY SC
91 63 ANNIE CURRIN 0:28:35 9:13 F 18 23 8 SPARTANBURG SC
92 173 TORI LAWING 0:28:36 9:13 F 19 26 9 UNION SC
93 151 MANOLO IBARRA 0:28:41 9:15 M 74 22 24 COLUMBIA SC
94 29 NATALIE BROWN 0:28:42 9:15 F 20 33 3 SPARTANBURG SC
95 227 MIKE PEDIGO 0:28:45 9:16 M 75 65 4 DUNCAN SC
96 371 JASON GETTIG 0:28:45 9:16 M 76 36 19    
97 326 MICHAEL VARGO 0:28:51 9:18 M 77 31 20 BOILING SPRINGS SC
98 367 CARSON MOORE 0:28:51 9:18 M 78 24 25    
99 306 KATIE STROUSE 0:28:52 9:18 F 21 33 4 WELLFORD SC
100 263 JENNI RUSSELL 0:28:53 9:19 F 22 24 10 SPARTANBURG SC
101
284 MOTTE SKINNER 0:28:53 9:19 M 79 59 8 FLORENCE SC
102 161 BRITTANY KERNS 0:28:53 9:19 F 23 35 5 SPARTANBURG SC
103 99 DARLENE GOODE 0:28:55 9:19 F 24 53 2 BOILING SPRINGS SC
104 19 LIN BLOOMQUIST 0:28:58 9:20 F 25 54 3 SIMPSONVILLE SC
105 253 MATTHEW RISCH 0:29:04 9:22 M 80 34 21 INMAN SC
106 76 MICHAEL EICKMAN 0:29:06 9:23 M 81 63 5 SPARTANBURG SC
107 337 DANIELLE WHITLOW 0:29:08 9:23 F 26 39 6 CAMPOBELLO SC
108 67 THOMAS DEW 0:29:09 9:24 M 82 30 22 SUMTER SC
109 333 KATIE WATKINS 0:29:11 9:24 F 27 33 7 GREENVILLE SC
110 234 CHRISTA PHILLIPS 0:29:13 9:25 F 28 37 8 SPARTANBURG SC
111 17 JEREMY BLANCHETTE 0:29:14 9:25 M 83 38 23 SIMPSONVILLE VT
112 7 RACHEL BALZER 0:29:20 9:27 F 29 27 11 IRMO SC
113 48 AIMEE CHEEK 0:29:21 9:28 F 30 42 4 SPARTANBURG SC
114 192 MIKE MERCIER 0:29:24 9:29 M 84 25 26 SPARTANBURG SC
115 189 LAMONT MCPHEARSON 0:29:24 9:29 M 85 24 27 CHARLESTON SC
116 119 LEAH HEBERT 0:29:24 9:29 F 31 32 9 STARTEX SC
117 184 PAIGE MATHIAS 0:29:25 9:29 F 32 22 12 SPARTANBURG SC
118 365 JEREMY WARREN 0:29:27 9:30 M 86 39 24    
119 369 SARAH WARNER 0:29:28 9:30 F 33 26 13    
120 146 JESSICA HUBER 0:29:32 9:31 F 34 41 5 SPARTANBURG SC
121 155 DENISE JAMES 0:29:35 9:32 F 35 43 6 GAFFNEY SC
122 252 ASHLEY RISCH 0:29:37 9:33 F 36 33 10 INMAN SC
123 139 CLIFF HOLSONBACK 0:29:42 9:34 M 87 36 25 TAYLORS SC
124 235 JOSHUA PHILLIPS 0:29:54 9:38 M 88 30 26 SPARTANBURG SC
125 322 KEN TUCK 0:30:04 9:41 M 89 61 6 BOILING SPRINGS SC
126 379 JILL GAINES 0:30:05 9:42 F 37 30 11    
127 8 ANTHONY BEIGAY 0:30:10 9:43 M 90 42 14 EASLEY SC
128 87 PARRISH FRY 0:30:11 9:44 F 38 36 12 WHITEVILLE NC
129 362 WM. GLENN ADCOCK 0:30:17 9:46 M 91 46 15    
130 65 KARI DE HOF 0:30:19 9:46 F 39 24 14 GAFFNEY SC
131 153 JIM IRWIN 0:30:44 9:54 M 92 62 7 WINDHAM NH
132 114 ALYSS HART 0:30:44 9:54 F 40 31 13 BOILING SPRINGS SC
133 61 MATT COX 0:30:45 9:55 M 93 39 27 ANDERSON SC
134 225 KATIE PATTERSON 0:30:50 9:56 F 41 24 15 SPARTANBURG SC
135 175 JUSTIN LEWIS 0:30:53 9:57 M 94 30 28 SPARTANBURG SC
136 328 KARI WALKER 0:31:02 10:00 F 42 32 14 SPARTANBURG SC
137 377 JOHN PFEIFER 0:31:03 10:00 M 95 29 28    
138 343 SHELBY WOLFF 0:31:04 10:01 F 43 24 16 BOILING SPRINGS SC
139 313 NEELY SWOFFORD 0:31:05 10:01 F 44 43 7 GAFFNEY SC
140 179 JEFF MAHONY 0:31:17 10:05 M 96 30 29 GREER SC
141 180 LAURA MAHONY 0:31:17 10:05 F 45 29 17 GREER SC
142 75 MIKE EDWARDS 0:31:25 10:08 M 97 47 16 MOORE SC
143 320 BRIAN THOMPSON 0:31:29 10:09 M 98 43 17 SIMPSONVILLE SC
144 321 CHASITY THOMPSON 0:31:30 10:09 F 46 35 15 SIMPSONVILLE SC
145 59 MATT COOK 0:31:41 10:13 M 99 37 30 GAFFNEY SC
146 138 SHAWN HOLMES 0:31:48 10:15 F 47 42 8 GAFFNEY SC
147 86 MATT FLOOD 0:31:48 10:15 M 100 29 29 SPARTANBURG SC
148 137 BECKY HOCKENBERRY 0:31:49 10:15 F 48 42 9 BOILING SPRINGS SC
149 273 MICHAEL SHEFFEY 0:31:59 10:19 M 101 24 30 RALEIGH NC
150 64 STEVEN DARCHVILLE 0:32:00 10:19 M 102 30 31 BOILING SPRINGS SC
151 323 JEFF TURNER 0:32:08 10:21 M 103 38 32 GAFFNEY SC
152 364 ERIN WARREN 0:32:09 10:22 F 49 36 16    
153 213 TYLER NORTHCUTT 0:32:09 10:22 M 104 27 31 ASHEVILLE NC
154 13 KENDALL BEUSHAUSEN 0:32:12 10:23 M 105 46 18 INMAN SC
155 162 DUSTIN KERNS 0:32:13 10:23 M 106 36 33 SPARTANBURG SC
156 222 WINTER PALMER 0:32:15 10:24 F 50 37 17 SIMPSONVILLE SC
157 93 ERIN GILES 0:32:20 10:25 F 51 29 18 SPARTANBURG SC
158 50 TODD CHUMLEY 0:32:33 10:30 M 107 45 19 SPARTANBURG SC
159 49 HANNAH CHUMLEY 0:32:34 10:30 F 52 19 2 SPARTANBURG SC
160 238 JENN PURCELL 0:32:35 10:30 F 53 32 18 SIMPSONVILLE SC
161 115 MATHIAS HASKELL 0:32:37 10:31 M 108 41 20 SIMPSONVILLE SC
162 55 TARA COHEN 0:32:37 10:31 F 54 32 19 SPARTANBURG SC
163 330 ROBIN WALTER 0:32:48 10:34 F 55 44 10 MAULDIN SC
164 264 ALI SACKO 0:32:49 10:35 F 56 31 20 COLUMBIA SC
165 148 OLIVIA HUMPHRIES 0:32:50 10:35 F 57 25 19 GREENVILLE SC
166 4 CHRISTI ATKINS 0:32:54 10:36 F 58 40 11 INMAN SC
167 11 RICHARD BENDALL 0:32:56 10:37 M 109 44 21 SPARTANBURG SC
168 256 JOE ROGERS 0:33:05 10:40 M 110 61 8 SPARTANBURG SC
169 283 RENEE SKEANS 0:33:06 10:40 F 59 49 12 GREER SC
170 331 JESSICA WANTHAL 0:33:14 10:43 F 60 24 20 GREENVILLE SC
171 160 JENNIFER KERLEY 0:33:18 10:44 F 61 47 13 WOODRUFF SC
172 261 ANDREW RUSH 0:33:31 10:48 M 111 34 34 SPARTANBURG SC
173 106 BRIDGET GREMM 0:33:31 10:48 F 62 26 21 OMAHA NE
174 355 JAROD PHILLIPPS 0:33:37 10:50 M 112 25 32    
175 83 AUSTIN FINLEY 0:33:37 10:50 M 113 26 33 GREENVILLE SC
176 361 ANJA SMITH 0:33:38 10:50 F 63 32 21    
177 9 KRISTEN BEIGAY 0:33:40 10:51 F 64 41 14 EASLEY SC
178 78 FRANK ELVINGTON 0:33:44 10:52 M 114 60 9 SPARTANBURG SC
179 185 CHRIS MATTERN 0:33:46 10:53 M 115 61 10 SIMPSONVILLE SC
180 90 ELIZABETH GARDNER 0:33:48 10:54 F 65 36 22 SIMPSONVILLE SC
181 181 HOLLAND MANESS 0:33:53 10:55 F 66 49 15 SPARTANBURG SC
182 182 PATTI MANESS 0:33:53 10:55 F 67 54 4 SPARTANBURG SC
183 89 BRIAN GARDNER 0:33:55 10:56 M 116 35 35 SIMPSONVILLE SC
184 74 MELANIE EDWARDS 0:34:05 10:59 F 68 37 23 MOORE SC
185 34 JASON CALHOUN 0:34:06 11:00 M 117 39 36 SPARTANBURG SC
186 187 LAURA MCJUNKIN 0:34:14 11:02 F 69 31 24 SPARTANBURG SC
187 128 ROB HEWSON 0:34:17 11:03 M 118 57 9 GREENVILLE SC
188 200 ALICE MORAES 0:34:17 11:03 F 70 54 5 GREENVILLE SC
189 56 KATIE CONGEL 0:34:20 11:04 F 71 25 22 SIMPSONVILLE SC
190 171 LISA LARSON 0:34:34 11:09 F 72 47 16 GREENVILLE SC
191 373 LORNA BURRELL 0:34:34 11:09 F 73 52 6    
192 308 SHELLEY SULLIVAN 0:34:39 11:10 F 74 48 17 ROEBUCK SC
193 32 ROBERTA BURAKOVSKI 0:34:41 11:11 F 75 39 25 GREENVILLE SC
194 152 CHRISITAN INFANTE-RICHTER 0:34:41 11:11 M 119 41 22 GREENVILLE SC
195 109 STEPHANIE HANCE 0:34:53 11:15 F 76 28 23 GREENVILLE SC
196 310 CASEY SUMNER 0:35:04 11:18 F 77 33 26 SPARTANBURG SC
197 131 KARI HILL 0:35:10 11:20 F 78 48 18 GREENVILLE SC
198 372 CHAD OYERVIDES 0:35:14 11:21 M 120 31 37    
199 120 GRACE HEDRICK 0:35:23 11:24 F 79 36 27 BOILING SPRINGS SC
200 105 GAIL GREENE 0:35:27 11:26 F 80 64 1 BOILING SPRINGS SC
201 380 ADAM GAINES 0:35:34 11:28 M 121 35 38    
202 317 LAURA TEMPLES 0:35:35 11:28 F 81 32 28 PIEDMONT SC
203 215 TAFFY ODOM 0:35:42 11:30 F 82 50 7 SIMPSONVILLE SC
204 276 NANCY SHERONICK 0:36:04 11:38 F 83 55 8 SPARTANBURG SC
205 275 ALI SHERONICK 0:36:06 11:38 M 122 54 10 SPARTANBURG SC
206 249 ALISHA RICH 0:36:18 11:42 F 84 29 24 ROEBUCK SC
207 68 TERESA DODRILL 0:36:18 11:42 F 85 48 19 SPINDALE NC
208 116 RACHAEL HASKELL 0:36:34 11:47 F 86 33 29 SIMPSONVILLE SC
209 133 GINGER HINES 0:36:35 11:48 F 87 33 30 SPARTANBURG SC
210 168 CHAD KNIGHT 0:36:37 11:48 M 123 38 39 BOILING SPRINGS SC
211 201 LUC MORAND 0:36:37 11:48 M 124 47 23 SPARTANBURG SC
212 43 ERIKA CARVER 0:36:58 11:55 F 88 10 1 ANDERSON SC
213 12 JENNIFER BEUSHAUSEN 0:36:58 11:55 F 89 49 20 INMAN SC
214 145 JAMES HUBER 0:36:59 11:55 M 125 48 24 SPARTANBURG SC
215 262 KATIE RUSH 0:37:01 11:56 F 90 31 31 SPARTANBURG SC
216 42 CHARLES CARVER 0:37:06 11:58 M 126 55 11 ANDERSON SC
217 307 NOELLE SUBLETT 0:37:23 12:03 F 91 40 21 SPARTANBURG SC
218 159 JAN KEITH 0:37:23 12:03 F 92 51 9 PAULINE SC
219 216 TANNER OLDHAM 0:37:36 12:07 M 127 24 34 SPARTANBURG SC
220 122 MARY KATHERINE HEFFERNAN 0:37:39 12:08 F 93 30 32 GREER SC
221 2 PATTY AMICK 0:37:53 12:13 F 94 61 2 SPARTANBURG SC
222 195 REBECCA MONROE 0:37:57 12:14 F 95 32 33 INMAN SC
223 170 JOE LARSON 0:38:03 12:16 M 128 46 25 GREENVILLE SC
224 314 MAILE TEMPLE 0:38:08 12:18 F 96 36 34 GREER SC
225 24 REBECCA BOWIE 0:38:09 12:18 F 97 26 25 GREENVILLE SC
226 95 BLAKE GIVENS 0:38:11 12:19 F 98 33 35 INMAN SC
227 290 LINDSAY SMITH 0:38:14 12:20 F 99 24 26 SPARTANBURG SC
228 289 JOSEPH SMITH 0:38:14 12:20 M 129 51 12 WAYNE PA
229 332 HANNA KATE WARRINGTON 0:38:14 12:20 F 100 24 27 ZIRCONIA NC
230 33 JESS BURNS 0:38:22 12:22 F 101 29 28 SPARTANBURG SC
231 240 BRITTANY RABB 0:38:26 12:23 F 102 31 36 GREER SC
232 282 MIKE SKEANS 0:38:37 12:27 M 130 52 13 GREER SC
233 297 KRISTEN STALLARD 0:38:47 12:30 F 103 29 29 MAULDIN SC
234 296 BRYAN STALLARD 0:38:48 12:30 M 131 30 40 SPARTANBURG SC
235 6 PATRICK BALLIEU 0:38:49 12:31 M 132 26 35 ANDERSON SC
236 5 HALEY BALLIEU 0:38:49 12:31 F 104 27 30 ANDERSON SC
237 125 ANDY HENDRIX 0:39:01 12:35 M 133 37 41 ANDERSON SC
238 72 AMANDA DROWER 0:39:07 12:37 F 105 25 31 CLEMSON SC
239 340 JOSH WILLIAMS 0:39:13 12:39 M 134 39 42 ROEBUCK SC
240 178 JULIE LONON 0:39:25 12:42 F 106 40 22 SPARTANBURG SC
241 1 CAYCE ADCOCK 0:39:26 12:43 F 107 33 37 MOORE SC
242 244 SUMMER RANDALL 0:39:31 12:44 F 108 35 38 PAULINE SC
243 259 AMY ROWLEY 0:39:39 12:47 F 109 41 23 ANDERSON SC
244 318 DAVID TERKOSKY 0:40:01 12:54 M 135 59 14 DAWSONVILLE GA
245 319 JERI TERKOSKY 0:40:06 12:56 F 110 59 10 DAWSONVILLE GA
246 239 BARBARA PURICA 0:40:06 12:56 F 111 35 39 GREER SC
247 288 JENNI SMITH 0:40:07 12:56 F 112 40 24 BOILING SPRINGS SC
248 257 JULIA ROGERS 0:40:31 13:04 F 113 24 32 SPARTANBURG SC
249 140 CHARLA HOPKINS 0:40:37 13:06 F 114 50 11 INMAN SC
250 269 AMY SCRUGGS 0:40:44 13:08 F 115 41 25 SPARTANBURG SC
251 31 ALLEN BUNN 0:40:44 13:08 M 136 31 43 SPARTANBURG SC
252 335 DANNY WHISNANT 0:40:45 13:08 M 137 52 15 UNION SC
253 141 CHARLIE HOPKINS 0:40:48 13:09 M 138 57 16 INMAN SC
254 149 ALICIA HUNSBERGER 0:40:54 13:11 F 116 41 26 LYMAN SC
255 294 MIRNA SORIANO 0:41:07 13:15 F 117 43 27 BOILING SPRINGS SC
256 236 JONATHAN PRUITT 0:41:09 13:16 M 139 28 36 CHESNEE SC
257 104 THOMAS GRAHAM 0:41:12 13:17 M 140 26 37 SIMPSONVILLE SC
258 28 JANE BROWN 0:41:24 13:21 F 118 47 28 SPARTANBURG SC
259 287 DONNA SMITH 0:41:59 13:32 F 119 51 12 SPARTANBURG SC
260 233 FRANK PETTY 0:42:14 13:37 M 141 52 17 DUNCAN SC
261 232 BILLY PETTY 0:42:15 13:37 M 142 13 3 DUNCAN SC
262 60 MIKE COVIL 0:42:17 13:38 M 143 46 26 MOORE SC
263 47 LISA CASSELL 0:42:18 13:38 F 120 44 29 WOODRUFF SC
264 338 LESLIE WIGGINS 0:42:23 13:40 F 121 26 33 GREENVILLE SC
265 193 MARY JANE MICHELS 0:42:26 13:41 F 122 55 13 SPARTANBURG SC
266 292 LAURIE SNELGROVE 0:42:52 13:49 F 123 41 30 GREER SC
267 190 KRISTY MEEHAN 0:43:09 13:55 F 124 27 34 SPARTANBURG SC
268 206 JOHN NEFF 0:43:11 13:55 M 144 31 44 SPARTANBURG SC
269 169 CINDY KRESS 0:43:14 13:56 F 125 59 14 SIMPSONVILLE SC
270 243 LEIGH RANDALL 0:43:14 13:56 F 126 46 31 SIMPSONVILLE SC
271 325 LAURA VARGO 0:43:21 13:59 F 127 30 40 BOILING SPRINGS SC
272 286 DESTINY SMITH 0:43:23 13:59 F 128 27 35 GREER SC
273 194 LAURA MITTLEMAN 0:43:55 14:10 F 129 38 41 SPARTANBURG SC
274 231 AMANDA PETTY 0:43:55 14:10 F 130 13 1 DUNCAN SC
275 228 SUSAN PEDIGO 0:44:04 14:12 F 131 54 15 DUNCAN SC
276 271 LEIGH SHARP 0:44:15 14:16 F 132 55 16 SIMPSONVILLE SC
277 53 MICHELLE CLANTON 0:44:18 14:17 F 133 41 32 GREER SC
278 174 ERIN LEE 0:44:26 14:20 F 134 36 42 MOORE SC
279 280 SHAWNA SIMMONS 0:44:26 14:20 F 135 34 43 BOILING SPRINGS SC
280 279 SARAH SILER 0:44:38 14:23 F 136 27 36 GREENVILLE SC
281 110 BEN HANCOCK 0:44:42 14:25 M 145 35 45 SPARTANBURG SC
282 199 WILKES MOORE 0:44:45 14:26 M 146 21 38 SPARTANBURG SC
283 186 ERIN MCGORMAN 0:45:20 14:37 F 137 42 33 SIMPSONVILLE SC
284 204 ZACH MULLINS 0:45:23 14:38 M 147 25 39 SPARTANBURG SC
285 255 BETH ROGERS 0:45:32 14:41 F 138 54 17 SPARTANBURG SC
286 14 DOTTIE BEVIS 0:45:42 14:44 F 139 39 44 UNION SC
287 77 RAY ELDER 0:45:50 14:47 M 148 45 27 PAULINE SC
288 230 ANGELA PETERSON 0:45:58 14:49 F 140 46 34 SPARTANBURG SC
289 26 REGINALD BREWSTER 0:46:13 14:54 M 149 38 46 SIMPSONVILLE SC
290 315 RODNEY TEMPLE 0:46:58 15:09 M 150 37 47 GREER SC
291 208 GLENN NOBLE 0:47:02 15:10 M 151 56 18 LANDRUM SC
292 353 DEBRA BLANTON 0:48:00 15:29 F 141 61 3    
293 352 KIMBERLY ASHLEY 0:48:01 15:29 F 142 49 35    
294 254 JJIMMY RODDY 0:48:04 15:30 M 152 38 48 MOORE SC
295 197 JILL MOORE 0:48:05 15:30 F 143 34 45 GREER SC
296 58 MINDY CONNOLLY 0:48:05 15:30 F 144 35 46 SPARTANBURG SC
297 172 LAUREN LAVIN 0:48:11 15:32 F 145 23 37 COLUMBIA SC
298 113 CATHERINE HARRISON 0:48:25 15:37 F 146 39 47 GREENVILLE SC
299 358 JESSIE ROBINSON 0:48:28 15:38 F 147 16 3    
300 165 JOSH KILLEN 0:48:29 15:38 M 153 41 28 PAULINE SC
301 54 RICH CLUFF 0:48:35 15:40 M 154 58 19 SIMPSONVILLE SC
302 30 STEPHANIE BULLARD 0:48:38 15:41 F 148 34 48 SIMPSONVILLE SC
303 94 BEN GIVENS 0:49:05 15:50 M 155 22 40 INMAN SC
304 124 ALLISON HENDRIX 0:49:07 15:50 F 149 33 49 ANDERSON SC
305 102 JEREMY GORDET 0:49:28 15:57 M 156 27 41 SPARTANBURG SC
306 158 PAM KEESLER 0:49:28 15:57 F 150 25 38 SPARTANBURG SC
307 121 GREG HEDRICK 0:49:48 16:03 M 157 14 4 BOILING SPRINGS SC
308 223 DONALD PARKS 0:50:32 16:18 M 158 32 49 SPARTANBURG SC
309 224 MONICA PARKS 0:50:32 16:18 F 151 32 50 SPARTANBURG SC
310 375 JEFF PARKS 0:50:33 16:18 M 159 35 50    
311 44 ERIN CARVER 0:51:01 16:27 F 152 7 2 ANDERSON SC
312 45 JULIE CARVER 0:51:04 16:28 F 153 46 36 ANDERSON SC
313 80 GRACE FAILMEZGER 0:51:20 16:33 F 154 51 18 SUMTER SC
314 101 BETH GOODENOUGH 0:51:45 16:41 F 155 57 19 SPARTANBURG SC
315 357 SALLY MOORE 0:51:46 16:41 F 156 61 4    
316 85 HEATH FLOOD 0:52:48 17:01 F 157 29 39 SPARTANBURG SC
317 382 MEGAN POLSON 0:52:48 17:01 F 158 24 40    
318 81 CHRISTOPHER FERGUSON 0:54:45 17:39 M 160 44 29 BENSON NC
319 298 JAMIE STANLEY 0:54:58 17:43 F 0 0 0 BENSON NC
320 339 CASEY WILLIAMS 0:55:06 17:46 F 159 31 51 ROEBUCK SC
321 217 MARIA OSTEEN 0:55:07 17:46 F 160 31 52 BEECH ISLAND SC
322 22 SCOTT BOILEAU 0:55:10 17:47 M 161 43 30 SIMPSONVILLE SC
323 21 CULLEN BOILEAU 0:55:11 17:48 M 162 12 5 SIMPSONVILLE SC
324 218 WILLIAM F. OSTEEN 0:55:30 17:54 M 163 30 51 BEECH ISLAND SC
325 376 PAOLA OVALLE 0:56:24 18:11 F 161 26 41 DUNCAN SC
326 84 MORGAN FLETCHER 0:56:24 18:11 F 162 23 42 BOILING SPRINGS SC
327 36 DANIEL CAMP 0:58:11 18:46 M 164 45 31 WOODRUFF SC
328 38 TRACY CAMP 0:58:12 18:46 F 163 46 37 WOODRUFF SC
329 210 ELENA NORMANDY 0:59:04 19:03 F 164 4 3 INMAN SC
330 211 JEAN NORMANDY 0:59:04 19:03 F 165 39 53 INMAN SC
331 274 BRITTANY SHEFLETT 0:59:04 19:03 F 166 22 43 SPARTANBURG SC
332 142 TAMMY HOUSTON 0:59:10 19:05 F 167 51 20 SPARTANBURG SC
333 37 TERRI CAMP 0:59:13 19:06 F 168 59 21 PAULINE SC
334 35 CURTIS CAMP 0:59:13 19:06 M 165 67 11 PAULINE SC
335 212 ROB NORMANDY 0:59:25 19:10 M 166 42 32 INMAN SC
336 300 VONNIE STANTON 1:00:51 19:37 F 169 58 22 GREENVILLE SC
337 299 CAROLYN STANTON 1:00:51 19:37 F 170 58 23 GREENVILLE SC
338 117 CINDY HAYNES 1:00:51 19:37 F 171 49 38 GREER SC
339 40 WADETTE CANTRELL 1:00:53 19:38 F 172 38 54 SPARTANBURG SC
340 144 KRISTEN HOY 1:00:54 19:38 F 173 34 55 BOILING SPRINGS SC
341 205 SANDRA NEELY 1:04:46 20:53 F 174 47 39 PELZER SC
342 25 STACY BREWER 1:04:48 20:54 F 175 29 44 ANDERSON SC
343 334 JANETTE WHELCHEL 1:08:10 21:59 F 176 70 1 GREENVILLE SC
344 118 WILLIAM HAYNES 1:08:11 21:59 M 167 53 20 GREER SC

AGE-GROUP AWARDS

Top Overall In 5K Division  MALE  
Place Bib No. Name Finish time Pace Age Gender City, State
1 354 JOSH CASHMAN 0:16:04 5:11 28 M GREENVILLE, SC
2 360 JON STOEHR 0:18:47 6:03 31 M GREER, SC
3 70 DAVID DOWNING 0:20:08 6:29 41 M GREENVILLE,SC
               
Top Overall In 5K Division  FEMALE  
1 370 ANNA JENNINGS 0:21:45 7:01 19 F SPARTANBURG, SC
2 143 SHANNON HOWELL 0:22:21 7:12 37 F GREENVILLE,SC
3 374 NIKKI RIDGEWAY 0:22:48 7:21 35 F SPARTANBURG, SC
               
Age Groups: 1 - 10  MALE  
1 349 TYNDLE ANTLEY 0:25:25 8:11 8 M GREER, SC
               
Age Groups: 1 - 10  FEMALE  
1 43 ERIKA CARVER 0:36:58 11:55 10 F ANDERSON,SC
2 44 ERIN CARVER 0:51:01 16:27 7 F ANDERSON,SC
3 210 ELENA NORMANDY 0:59:04 19:03 4 F INMAN,SC
               
Age Groups: 11 - 14  MALE  
1 46 ZACHARY CARVER 0:21:51 7:03 12 M ANDERSON,SC
2 88 MATTHEW GALLEGO 0:26:16 8:28 13 M TAYLORS,SC
3 232 BILLY PETTY 0:42:15 13:37 13 M DUNCAN,SC
               
Age Groups: 11 - 14  FEMALE  
1 231 AMANDA PETTY 0:43:55 14:10 13 F DUNCAN,SC
               
Age Groups: 15 - 20  MALE  
1 312 DAVIS SWOFFORD 0:22:00 7:05 16 M GAFFNEY,SC
2 345 LOGAN YENSER 0:22:41 7:19 15 M SIMPSONVILLE,SC
3 207 CHRISTIAN NEWTON 0:27:01 8:43 16 M CHESNEE,SC
               
Age Groups: 15 - 20  FEMALE  
1 16 MEAGAN BLAKESLEY 0:23:54 7:42 20 F ANDERSON,SC
2 49 HANNAH CHUMLEY 0:32:34 10:30 19 F SPARTANBURG,SC
3 358 JESSIE ROBINSON 0:48:28 15:38 16 F INMAN, SC
               
Age Groups: 21 - 29  MALE  
1 350 EVAN HANLEY 0:20:37 6:39 25 M GREENVILLE, SC
2 381 MATTHEW SHEMANSKI 0:20:49 6:43 24 M SPARTANBURG, SC
3 246 MARK RENNIX 0:22:13 7:10 23 M SPARTANBURG,SC
               
Age Groups: 21 - 29  FEMALE  
1 220 NICOLE OWENS 0:24:11 7:48 23 F GREENVILLE,SC
2 79 JILL ENGE 0:24:13 7:49 25 F HONEA PATH,SC
3 363 RACHEL SMITH 0:25:13 8:08 23 F SPARTANBURG, SC
               
Age Groups: 30 - 39  MALE  
1 202 KEITH MOREE 0:20:45 6:41 36 M WHITEVILLE,NC
2 270 JONATHAN SEDBERRY 0:20:59 6:46 37 M SPARTANBURG,SC
3 265 RYAN SACKO 0:21:28 6:55 35 M COLUMBIA,SC
               
Age Groups: 30 - 39  FEMALE  
1 66 MELISSA DEVORE 0:27:45 8:57 32 F GAFFNEY,SC
2 111 MEG HANCOCK 0:27:54 9:00 32 F SPARTANBURG,SC
3 29 NATALIE BROWN 0:28:42 9:15 33 F SPARTANBURG,SC
               
Age Groups: 40 - 49  MALE  
1 82 CHRISTOPHER FERLAND 0:20:51 6:43 46 M MAULDIN,SC
2 267 JASON SCHREINER 0:22:46 7:20 43 M SIMPSONVILLE,SC
3 346 ROGER MYERS 0:23:02 7:26 42 M INMAN, SC
               
Age Groups: 40 - 49  FEMALE  
1 71 MELISSA DOWNS-HIGH 0:25:45 8:18 48 F MYRTLE BEACH,SC
2 132 MARNA HILL 0:27:23 8:50 46 F SIMPSONVILLE,SC
3 39 AMANDA CAMPBELL 0:28:19 9:08 41 F GAFFNEY,SC
               
Age Groups: 50 - 59  MALE  
1 366 DJ JORDON 0:21:49 7:02 53 M GREER. SC
2 127 ANDREW HEWSON 0:23:36 7:37 57 M SPARTANBURG,SC
3 176 BILL LINN 0:24:47 7:59 50 M GREENVILLE,SC
               
Age Groups: 50 - 59  FEMALE  
1 18 DEANNE BLAS 0:24:28 7:53 52 F SIMPSONVILLE,SC
2 99 DARLENE GOODE 0:28:55 9:19 53 F BOILING SPRINGS,SC
3 19 LIN BLOOMQUIST 0:28:58 9:20 54 F SIMPSONVILLE,SC
               
Age Groups: 60 - 69  MALE  
1 41 BILL CARRY 0:24:35 7:55 60 M SPARTANBURG,SC
2 342 TOM WILSON 0:26:27 8:32 66 M GREENVILLE,SC
3 383 JIM BALLINGER 0:27:12 8:46 63 M SPARTANBURG, SC
               
Age Groups: 60 - 69  FEMALE  
1 105 GAIL GREENE 0:35:27 11:26 64 F BOILING SPRINGS,SC
2 2 PATTY AMICK 0:37:53 12:13 61 F SPARTANBURG,SC
3 353 DEBRA BLANTON 0:48:00 15:29 61 F SPARTANBURG, SC
               
Age Groups: 70 - 98  FEMALE  
1 334 JANETTE WHELCHEL 1:08:10 21:59 70 F GREENVILLE,SC
               
No Age Provided  FEMALE  
1 298 JAMIE STANLEY 0:54:58 17:44 0 F BENSON,NC